Hauptseite
METAR-TAF:

METAR-TAF

Flughäfen :

Militärflugplatz Lanvéoc-Poulmic

Lanvéoc, Frankreich

Breite: 48-17N, Länge: 004-26W, Höhe: 87 m

Beobachtung

Neuester Wetterbericht von vor 20 Minuten, um 18:30 UTC
Wind 5 kt aus Nord/Nordwest
Temperatur 22°C
Luftfeuchtigkeit 60%
Luftdruck 1016 hPa
Sichtweite 10 km oder mehr
keine Wolken unter 1500 m und keine Kumulonimbus oder Gewitterwolken

METAR: LFRL 061830Z AUTO 33005KT CAVOK 22/14 Q1016 NOSIG

Zeit: 20:50 (18:50 UTC)

Prognose

Neuester Wetterbericht von vor 7 Stunden und 50 Minuten, um 11:00 UTC
Gültige Prognose vom 06 um 12 UTC bis 07 um 12 UTC
Wind 8 kt aus Süd/Südwest
Sichtweite 10 km oder mehr
keine Wolken unter 1500 m und keine Kumulonimbus oder Gewitterwolken
Zeitweise
vom 06 um 15 UTC bis 06 um 18 UTC
Wind 3 kt aus unterschiedlichen Richtungen

TAF: LFRL 061100Z 0612/0712 20008KT CAVOK TEMPO 0615/0618 VRB03KT

Wetterbeobachtungen und Prognosen von mehr als 4000 Flughäfen (METAR und TAF Bericht).

Die verfügbaren Stationen werden durch gelbe und rote Markierungen auf der Karte dargestellt.

Führen Sie die Maus auf sie, um den Namen der Station zu sehen.

Darauf klicken, um die Beobachtung von Wetterbeobachtungen und Prognosen zu sehen.

Um die Karte zu ändern : klicken Sie auf den grünen Tasten mit einem schwarzen Kreuz Zum Vergrößern, auf den grünen Button mit einem Gedankenstrich zu verkleinern, oder auf die grünen Pfeile für benachbarte Karten.


METAR-TAF: